Time;durP1;ratioP1;P1;durP2;ratioP2;P2;SDS_P1;SDS_P2;PMS_P1;PMS_P2;Temp;Humidity;BMP_temperature;BMP_pressure;BME280_temperature;BME280_humidity;BME280_pressure;Samples;Min_cycle;Max_cycle;Signal;HPM_P1;HPM_P2
2023/06/15 00:00:14;;;;;;;9.63;3.40;;;;;;;;;;5057697;28;20275;-81
2023/06/15 00:02:42;;;;;;;4.57;3.63;;;;;;;;;;5051783;28;20210;-80
2023/06/15 00:05:09;;;;;;;3.90;3.60;;;;;;;;;;5050712;28;20699;-81
2023/06/15 00:07:37;;;;;;;3.70;3.40;;;;;;;;;;5051227;28;20213;-81
2023/06/15 00:10:06;;;;;;;4.73;3.47;;;;;;;;;;5050941;28;20221;-80
2023/06/15 00:12:33;;;;;;;3.43;3.13;;;;;;;;;;5051007;28;20209;-80
2023/06/15 00:15:01;;;;;;;4.10;3.70;;;;;;;;;;5050649;28;20226;-81
2023/06/15 00:17:29;;;;;;;8.20;3.70;;;;;;;;;;5051361;28;20209;-80
2023/06/15 00:19:57;;;;;;;4.20;3.50;;;;;;;;;;5054948;28;20696;-80
2023/06/15 00:22:26;;;;;;;3.53;3.23;;;;;;;;;;5054577;28;20613;-80
2023/06/15 00:24:53;;;;;;;3.53;3.23;;;;;;;;;;5042888;28;20707;-80
2023/06/15 00:27:21;;;;;;;5.37;3.47;;;;;;;;;;5051494;28;20209;-81
2023/06/15 00:29:48;;;;;;;5.27;3.83;;;;;;;;;;5050343;28;20250;-81
2023/06/15 00:32:15;;;;;;;3.83;3.53;;;;;;;;;;5051089;28;20221;-80
2023/06/15 00:34:42;;;;;;;5.07;3.50;;;;;;;;;;5050294;28;20731;-80
2023/06/15 00:37:10;;;;;;;5.70;3.80;;;;;;;;;;5050943;28;20202;-81
2023/06/15 00:39:37;;;;;;;3.90;3.50;;;;;;;;;;5050923;28;20237;-80
2023/06/15 00:42:04;;;;;;;3.97;3.40;;;;;;;;;;5054821;28;20202;-80
2023/06/15 00:44:32;;;;;;;3.77;3.47;;;;;;;;;;5054087;28;20718;-81
2023/06/15 00:47:00;;;;;;;5.77;3.63;;;;;;;;;;5054604;28;20205;-81
2023/06/15 00:49:27;;;;;;;3.67;3.37;;;;;;;;;;5054058;28;20260;-81
2023/06/15 00:51:55;;;;;;;3.60;3.30;;;;;;;;;;5054705;28;20205;-81
2023/06/15 00:54:24;;;;;;;4.00;3.33;;;;;;;;;;5054193;28;20229;-80
2023/06/15 00:56:51;;;;;;;4.00;3.70;;;;;;;;;;5046278;28;20209;-80
2023/06/15 00:59:19;;;;;;;4.13;3.40;;;;;;;;;;5054060;28;20237;-80
2023/06/15 01:01:48;;;;;;;3.80;3.30;;;;;;;;;;5053566;28;20230;-81
2023/06/15 01:04:16;;;;;;;3.83;3.40;;;;;;;;;;5046719;28;20230;-81
2023/06/15 01:06:52;;;;;;;4.30;3.90;;;;;;;;;;5051483;28;20202;-80
2023/06/15 01:09:20;;;;;;;4.10;3.50;;;;;;;;;;5053746;28;20268;-80
2023/06/15 01:11:48;;;;;;;3.87;3.57;;;;;;;;;;5054009;28;20203;-80
2023/06/15 01:14:16;;;;;;;5.17;3.67;;;;;;;;;;5060635;28;20245;-80
2023/06/15 01:16:44;;;;;;;4.23;3.50;;;;;;;;;;5055330;28;20213;-80
2023/06/15 01:19:29;;;;;;;4.03;3.63;;;;;;;;;;5061717;28;20230;-80
2023/06/15 01:21:57;;;;;;;3.87;3.53;;;;;;;;;;5058710;28;20282;-79
2023/06/15 01:24:31;;;;;;;4.50;3.40;;;;;;;;;;5057249;28;20237;-80
2023/06/15 01:27:04;;;;;;;5.20;4.60;;;;;;;;;;5050957;28;20225;-80
2023/06/15 01:29:34;;;;;;;3.77;3.47;;;;;;;;;;5056275;28;20237;-79
2023/06/15 01:32:02;;;;;;;4.87;3.43;;;;;;;;;;5053909;28;20226;-79
2023/06/15 01:34:29;;;;;;;3.80;3.50;;;;;;;;;;5053104;28;20237;-80
2023/06/15 01:36:56;;;;;;;3.73;3.43;;;;;;;;;;5053665;28;20220;-80
2023/06/15 01:39:23;;;;;;;5.17;3.90;;;;;;;;;;5061701;28;20234;-80
2023/06/15 01:41:51;;;;;;;4.90;3.10;;;;;;;;;;5053307;28;20222;-80
2023/06/15 01:44:19;;;;;;;5.03;3.60;;;;;;;;;;5061403;28;20225;-79
2023/06/15 01:46:46;;;;;;;4.00;3.60;;;;;;;;;;5054925;28;20210;-80
2023/06/15 01:49:13;;;;;;;3.43;3.13;;;;;;;;;;5059468;28;20232;-80
2023/06/15 01:51:41;;;;;;;7.60;3.83;;;;;;;;;;5053993;28;20213;-80
2023/06/15 01:54:08;;;;;;;3.87;3.57;;;;;;;;;;5053170;28;20234;-79
2023/06/15 01:56:35;;;;;;;4.03;3.43;;;;;;;;;;5053361;28;20564;-80
2023/06/15 01:59:02;;;;;;;4.70;3.73;;;;;;;;;;5052630;28;20242;-80
2023/06/15 02:01:30;;;;;;;4.10;3.70;;;;;;;;;;5053159;28;20291;-79
2023/06/15 02:03:57;;;;;;;3.97;3.67;;;;;;;;;;5044371;28;20245;-79
2023/06/15 02:06:25;;;;;;;5.13;4.07;;;;;;;;;;5052557;28;20229;-78
2023/06/15 02:08:52;;;;;;;4.10;3.80;;;;;;;;;;5052254;28;20244;-78
2023/06/15 02:11:19;;;;;;;4.60;3.77;;;;;;;;;;5052939;28;20195;-78
2023/06/15 02:13:46;;;;;;;3.90;3.60;;;;;;;;;;5052003;28;20206;-79
2023/06/15 02:16:15;;;;;;;3.97;3.50;;;;;;;;;;5053045;28;20578;-78
2023/06/15 02:18:44;;;;;;;4.73;3.70;;;;;;;;;;5052115;28;20229;-79
2023/06/15 02:21:11;;;;;;;4.40;3.70;;;;;;;;;;5052780;28;20218;-78
2023/06/15 02:23:38;;;;;;;5.07;4.07;;;;;;;;;;5060168;28;20210;-78
2023/06/15 02:26:05;;;;;;;5.53;4.53;;;;;;;;;;5052726;28;20673;-78
2023/06/15 02:28:32;;;;;;;4.10;3.70;;;;;;;;;;5052617;28;20217;-79
2023/06/15 02:30:59;;;;;;;5.47;3.83;;;;;;;;;;5052421;28;20214;-78
2023/06/15 02:33:27;;;;;;;5.80;3.90;;;;;;;;;;5052412;28;20206;-78
2023/06/15 02:35:55;;;;;;;5.77;3.80;;;;;;;;;;5051679;28;20607;-78
2023/06/15 02:38:22;;;;;;;4.37;4.07;;;;;;;;;;5052183;28;20207;-78
2023/06/15 02:40:51;;;;;;;3.97;3.67;;;;;;;;;;5051792;28;20230;-78
2023/06/15 02:43:18;;;;;;;3.97;3.50;;;;;;;;;;5052174;28;20570;-79
2023/06/15 02:45:45;;;;;;;4.03;3.67;;;;;;;;;;5051666;28;20234;-78
2023/06/15 02:48:12;;;;;;;4.53;4.03;;;;;;;;;;5051983;28;20198;-78
2023/06/15 02:50:39;;;;;;;5.30;4.03;;;;;;;;;;5051403;28;20230;-78
2023/06/15 02:53:08;;;;;;;5.53;3.80;;;;;;;;;;5051996;28;20202;-78
2023/06/15 02:55:37;;;;;;;4.10;3.80;;;;;;;;;;5051647;28;20240;-79
2023/06/15 02:58:05;;;;;;;4.33;3.90;;;;;;;;;;5051966;28;20687;-78
2023/06/15 03:00:32;;;;;;;5.97;3.93;;;;;;;;;;5059684;28;20234;-78
2023/06/15 03:03:00;;;;;;;4.03;3.63;;;;;;;;;;5043859;28;20210;-78
2023/06/15 03:05:27;;;;;;;9.97;4.20;;;;;;;;;;5051398;28;20233;-78
2023/06/15 03:07:54;;;;;;;4.10;3.73;;;;;;;;;;5051640;28;20631;-78
2023/06/15 03:10:22;;;;;;;4.50;4.10;;;;;;;;;;5051246;28;20588;-78
2023/06/15 03:12:49;;;;;;;3.90;3.60;;;;;;;;;;5052554;28;20198;-78
2023/06/15 03:15:17;;;;;;;4.10;3.80;;;;;;;;;;5051379;28;20249;-78
2023/06/15 03:17:44;;;;;;;4.10;3.80;;;;;;;;;;5052670;28;20221;-78
2023/06/15 03:20:12;;;;;;;4.67;4.13;;;;;;;;;;5051072;28;20708;-78
2023/06/15 03:22:39;;;;;;;4.13;3.73;;;;;;;;;;5051434;28;20221;-78
2023/06/15 03:25:10;;;;;;;3.63;3.33;;;;;;;;;;5050722;28;20321;-78
2023/06/15 03:27:40;;;;;;;3.87;3.40;;;;;;;;;;5051888;28;20293;-78
2023/06/15 03:30:10;;;;;;;4.47;3.90;;;;;;;;;;5057972;28;20229;-79
2023/06/15 03:32:38;;;;;;;7.90;3.93;;;;;;;;;;5048403;28;20205;-78
2023/06/15 03:35:05;;;;;;;4.57;4.17;;;;;;;;;;5049971;28;20230;-78
2023/06/15 03:37:33;;;;;;;4.03;3.73;;;;;;;;;;5051084;28;20214;-78
2023/06/15 03:40:00;;;;;;;7.03;4.10;;;;;;;;;;5050969;28;20287;-78
2023/06/15 03:42:27;;;;;;;5.20;3.80;;;;;;;;;;5051388;28;20699;-78
2023/06/15 03:44:55;;;;;;;4.20;3.87;;;;;;;;;;5050583;28;20237;-78
2023/06/15 03:47:22;;;;;;;4.77;4.10;;;;;;;;;;5051577;28;20213;-78
2023/06/15 03:49:49;;;;;;;5.13;3.90;;;;;;;;;;5050275;28;20237;-78
2023/06/15 03:52:16;;;;;;;4.63;3.87;;;;;;;;;;5051356;28;20225;-78
2023/06/15 03:54:43;;;;;;;4.40;4.00;;;;;;;;;;5051539;28;20734;-80
2023/06/15 03:57:10;;;;;;;4.47;3.90;;;;;;;;;;5055671;28;20209;-79
2023/06/15 03:59:38;;;;;;;4.27;3.97;;;;;;;;;;5050376;28;20229;-79
2023/06/15 04:02:06;;;;;;;5.30;4.13;;;;;;;;;;5058885;28;20272;-79
2023/06/15 04:04:33;;;;;;;5.50;4.10;;;;;;;;;;5050076;28;20692;-78
2023/06/15 04:07:01;;;;;;;4.50;4.10;;;;;;;;;;5050858;28;20198;-78
2023/06/15 04:09:28;;;;;;;4.60;4.20;;;;;;;;;;5050669;28;20230;-78
2023/06/15 04:11:55;;;;;;;7.10;4.27;;;;;;;;;;5050759;28;20210;-79
2023/06/15 04:14:22;;;;;;;4.27;3.87;;;;;;;;;;5056840;28;20599;-79
2023/06/15 04:16:50;;;;;;;4.40;4.10;;;;;;;;;;5056028;28;20671;-80
2023/06/15 04:19:22;;;;;;;4.53;4.13;;;;;;;;;;5054751;28;20236;-78
2023/06/15 04:21:49;;;;;;;4.37;3.97;;;;;;;;;;5054770;28;20320;-78
2023/06/15 04:24:16;;;;;;;4.77;4.17;;;;;;;;;;5054418;28;20221;-78
2023/06/15 04:26:43;;;;;;;6.73;4.97;;;;;;;;;;5054925;28;20206;-78
2023/06/15 04:29:10;;;;;;;4.50;4.10;;;;;;;;;;5054626;28;20593;-78
2023/06/15 04:31:39;;;;;;;4.50;4.10;;;;;;;;;;5054779;28;20206;-78
2023/06/15 04:34:07;;;;;;;4.47;4.00;;;;;;;;;;5054478;28;20283;-78
2023/06/15 04:36:38;;;;;;;5.10;4.47;;;;;;;;;;5054722;28;20241;-79
2023/06/15 04:39:06;;;;;;;4.73;4.33;;;;;;;;;;5054979;28;20283;-79
2023/06/15 04:41:35;;;;;;;4.33;4.03;;;;;;;;;;5054610;28;20236;-79
2023/06/15 04:44:02;;;;;;;5.00;4.53;;;;;;;;;;5053860;28;20874;-79
2023/06/15 04:46:29;;;;;;;4.80;4.40;;;;;;;;;;5049472;28;20687;-80
2023/06/15 04:48:57;;;;;;;5.17;4.27;;;;;;;;;;5061868;28;20237;-79
2023/06/15 04:51:25;;;;;;;4.97;4.57;;;;;;;;;;5062842;28;20194;-79
2023/06/15 04:53:54;;;;;;;4.57;4.17;;;;;;;;;;5061888;28;20210;-79
2023/06/15 04:56:21;;;;;;;6.53;4.93;;;;;;;;;;5054425;28;20203;-79
2023/06/15 04:58:48;;;;;;;4.77;4.37;;;;;;;;;;5053591;28;20237;-79
2023/06/15 05:01:16;;;;;;;6.60;4.73;;;;;;;;;;5054114;28;20698;-79
2023/06/15 05:03:43;;;;;;;5.70;4.87;;;;;;;;;;5053460;28;20220;-79
2023/06/15 05:06:10;;;;;;;5.83;5.20;;;;;;;;;;5054109;28;20205;-79
2023/06/15 05:08:37;;;;;;;5.93;4.60;;;;;;;;;;5061820;28;20230;-79
2023/06/15 05:11:06;;;;;;;8.73;6.73;;;;;;;;;;5062359;28;20206;-79
2023/06/15 05:13:33;;;;;;;5.90;5.03;;;;;;;;;;5053982;28;20198;-79
2023/06/15 05:16:00;;;;;;;7.03;5.03;;;;;;;;;;5053798;28;20261;-80
2023/06/15 05:18:27;;;;;;;7.20;4.80;;;;;;;;;;5054075;28;20553;-79
2023/06/15 05:20:55;;;;;;;6.17;5.13;;;;;;;;;;5053442;28;20599;-79
2023/06/15 05:23:22;;;;;;;5.23;4.57;;;;;;;;;;5053742;28;20230;-79
2023/06/15 05:25:49;;;;;;;5.40;4.90;;;;;;;;;;5053433;28;20240;-79
2023/06/15 05:28:19;;;;;;;6.60;4.40;;;;;;;;;;5053965;28;20202;-79
2023/06/15 05:30:46;;;;;;;5.40;4.60;;;;;;;;;;5061659;28;20707;-79
2023/06/15 05:33:13;;;;;;;6.80;4.83;;;;;;;;;;5058198;28;20538;-79
2023/06/15 05:35:40;;;;;;;5.07;4.57;;;;;;;;;;5056854;28;20291;-79
2023/06/15 05:38:07;;;;;;;4.90;4.47;;;;;;;;;;5061943;28;20215;-79
2023/06/15 05:40:34;;;;;;;5.30;4.80;;;;;;;;;;5053272;28;20246;-78
2023/06/15 05:43:02;;;;;;;6.03;4.60;;;;;;;;;;5053019;28;20625;-78
2023/06/15 05:45:31;;;;;;;5.17;4.67;;;;;;;;;;5053207;28;20234;-79
2023/06/15 05:47:58;;;;;;;6.37;4.57;;;;;;;;;;5053566;28;20237;-79
2023/06/15 05:50:25;;;;;;;4.90;4.50;;;;;;;;;;5053038;28;20233;-78
2023/06/15 05:52:52;;;;;;;4.80;4.40;;;;;;;;;;5046035;28;20224;-78
2023/06/15 05:55:19;;;;;;;5.20;4.70;;;;;;;;;;5052272;28;20227;-78
2023/06/15 05:57:46;;;;;;;4.70;4.30;;;;;;;;;;5042191;28;20627;-79
2023/06/15 06:00:13;;;;;;;4.53;4.13;;;;;;;;;;5052177;28;20237;-79
2023/06/15 06:02:42;;;;;;;4.13;3.73;;;;;;;;;;5052418;28;20222;-81
2023/06/15 06:05:10;;;;;;;4.43;3.93;;;;;;;;;;5048239;28;20226;-80
2023/06/15 06:07:37;;;;;;;4.00;3.70;;;;;;;;;;5047982;28;20206;-79
2023/06/15 06:10:04;;;;;;;4.20;3.73;;;;;;;;;;5047519;28;20234;-79
2023/06/15 06:12:31;;;;;;;3.60;3.30;;;;;;;;;;5052213;28;20206;-79
2023/06/15 06:14:58;;;;;;;3.40;3.10;;;;;;;;;;5052961;28;20229;-78
2023/06/15 06:17:25;;;;;;;4.50;3.40;;;;;;;;;;5057906;28;20209;-79
2023/06/15 06:19:55;;;;;;;4.50;3.50;;;;;;;;;;5052840;28;20253;-79
2023/06/15 06:22:23;;;;;;;3.90;3.30;;;;;;;;;;5052247;28;20719;-79
2023/06/15 06:24:50;;;;;;;3.30;3.00;;;;;;;;;;5051301;28;20311;-79
2023/06/15 06:27:17;;;;;;;3.00;2.80;;;;;;;;;;5052479;28;20206;-80
2023/06/15 06:29:44;;;;;;;3.45;3.15;;;;;;;;;;5051804;28;20241;-79
2023/06/15 06:32:11;;;;;;;3.50;3.20;;;;;;;;;;5045253;28;20213;-80
2023/06/15 06:34:38;;;;;;;3.75;3.13;;;;;;;;;;5054278;28;20225;-80
2023/06/15 06:37:07;;;;;;;3.20;2.90;;;;;;;;;;5053444;28;20207;-80
2023/06/15 06:39:34;;;;;;;4.15;3.10;;;;;;;;;;5038239;28;20226;-80
2023/06/15 06:42:02;;;;;;;5.85;2.92;;;;;;;;;;5051811;28;20230;-80
2023/06/15 06:44:29;;;;;;;3.13;2.83;;;;;;;;;;5058521;28;20260;-79
2023/06/15 06:46:57;;;;;;;3.80;2.95;;;;;;;;;;5051616;28;20240;-80
2023/06/15 06:49:24;;;;;;;3.33;3.05;;;;;;;;;;5051511;28;20564;-80
2023/06/15 06:51:51;;;;;;;3.28;2.80;;;;;;;;;;5051543;28;20217;-80
2023/06/15 06:54:19;;;;;;;3.05;2.83;;;;;;;;;;5051083;28;20326;-81
2023/06/15 06:56:47;;;;;;;3.25;2.95;;;;;;;;;;5051699;28;20238;-80
2023/06/15 06:59:14;;;;;;;3.15;2.85;;;;;;;;;;5051049;28;20276;-80
2023/06/15 07:01:43;;;;;;;3.75;2.58;;;;;;;;;;5051512;28;20217;-80
2023/06/15 07:04:10;;;;;;;3.28;2.92;;;;;;;;;;5050694;28;20287;-80
2023/06/15 07:06:37;;;;;;;4.53;2.88;;;;;;;;;;5051503;28;20787;-79
2023/06/15 07:09:04;;;;;;;3.03;2.83;;;;;;;;;;5050701;28;20237;-80
2023/06/15 07:11:33;;;;;;;2.70;2.50;;;;;;;;;;5059750;28;20640;-81
2023/06/15 07:14:02;;;;;;;3.08;2.80;;;;;;;;;;5050388;28;20229;-80
2023/06/15 07:16:30;;;;;;;3.30;3.08;;;;;;;;;;5047088;28;20228;-80
2023/06/15 07:18:57;;;;;;;3.67;2.97;;;;;;;;;;5050763;28;20230;-80
2023/06/15 07:21:24;;;;;;;2.55;2.35;;;;;;;;;;5051077;28;20206;-80
2023/06/15 07:23:51;;;;;;;2.90;2.70;;;;;;;;;;5049928;28;20463;-82
2023/06/15 07:26:18;;;;;;;3.58;3.00;;;;;;;;;;5051511;28;20206;-80
2023/06/15 07:28:46;;;;;;;4.28;2.85;;;;;;;;;;5050601;28;20230;-80
2023/06/15 07:31:13;;;;;;;2.90;2.63;;;;;;;;;;5051100;28;20562;-80
2023/06/15 07:33:40;;;;;;;3.88;2.72;;;;;;;;;;5050533;28;20585;-80
2023/06/15 07:36:08;;;;;;;2.92;2.72;;;;;;;;;;5054291;28;20585;-80
2023/06/15 07:38:36;;;;;;;2.72;2.53;;;;;;;;;;5050577;28;20228;-80
2023/06/15 07:41:03;;;;;;;3.42;2.90;;;;;;;;;;5040955;28;20208;-79
2023/06/15 07:43:30;;;;;;;3.08;2.80;;;;;;;;;;5050572;28;20237;-79
2023/06/15 07:45:58;;;;;;;3.15;2.40;;;;;;;;;;5050026;28;20238;-79
2023/06/15 07:48:25;;;;;;;4.38;3.38;;;;;;;;;;5050724;28;20206;-79
2023/06/15 07:50:52;;;;;;;2.80;2.60;;;;;;;;;;5049304;28;20234;-78
2023/06/15 07:53:20;;;;;;;3.10;2.70;;;;;;;;;;5050625;28;20717;-80
2023/06/15 07:55:47;;;;;;;2.70;2.50;;;;;;;;;;5050304;28;20642;-79
2023/06/15 07:58:14;;;;;;;3.28;2.60;;;;;;;;;;5050453;28;20212;-79
2023/06/15 08:00:41;;;;;;;2.78;2.58;;;;;;;;;;5070702;23;20765;-76
2023/06/15 08:03:09;;;;;;;4.18;2.60;;;;;;;;;;5042332;28;20230;-77
2023/06/15 08:05:36;;;;;;;4.72;2.92;;;;;;;;;;5043617;28;20715;-77
2023/06/15 08:08:03;;;;;;;2.47;2.28;;;;;;;;;;5039362;28;20261;-77
2023/06/15 08:10:31;;;;;;;2.88;2.65;;;;;;;;;;5044562;28;20583;-78
2023/06/15 08:12:59;;;;;;;3.25;2.95;;;;;;;;;;5042053;28;20722;-78
2023/06/15 08:15:26;;;;;;;3.53;2.40;;;;;;;;;;5042836;28;20233;-77
2023/06/15 08:17:53;;;;;;;3.22;2.88;;;;;;;;;;5050680;28;20244;-78
2023/06/15 08:20:21;;;;;;;5.88;2.92;;;;;;;;;;5034267;28;20619;-77
2023/06/15 08:22:48;;;;;;;4.80;2.22;;;;;;;;;;5046749;28;20230;-77
2023/06/15 08:25:15;;;;;;;2.92;2.65;;;;;;;;;;5031219;28;20237;-78
2023/06/15 08:27:42;;;;;;;3.45;2.70;;;;;;;;;;5046309;28;20225;-78
2023/06/15 08:30:10;;;;;;;2.60;2.40;;;;;;;;;;5050023;28;20341;-77
2023/06/15 08:32:37;;;;;;;4.15;2.70;;;;;;;;;;5042683;28;20238;-78
2023/06/15 08:35:04;;;;;;;3.70;2.50;;;;;;;;;;5037391;28;20230;-77
2023/06/15 08:37:33;;;;;;;2.85;2.60;;;;;;;;;;5039005;28;20207;-77
2023/06/15 08:40:05;;;;;;;2.90;2.70;;;;;;;;;;5046183;28;20225;-77
2023/06/15 08:42:33;;;;;;;3.17;2.30;;;;;;;;;;5044402;28;20246;-77
2023/06/15 08:45:00;;;;;;;7.47;2.90;;;;;;;;;;5041090;28;20240;-78
2023/06/15 08:47:27;;;;;;;4.13;2.88;;;;;;;;;;5043251;28;20216;-78
2023/06/15 08:49:54;;;;;;;3.05;2.70;;;;;;;;;;5034273;28;20285;-79
2023/06/15 08:52:24;;;;;;;5.05;2.80;;;;;;;;;;5038684;28;20211;-79
2023/06/15 08:54:54;;;;;;;2.90;2.60;;;;;;;;;;5038581;28;20254;-78
2023/06/15 08:57:21;;;;;;;2.63;2.42;;;;;;;;;;5030909;28;20199;-79
2023/06/15 08:59:48;;;;;;;2.75;2.55;;;;;;;;;;5038939;28;20317;-78
2023/06/15 09:02:20;;;;;;;2.83;2.63;;;;;;;;;;5041281;28;20622;-78
2023/06/15 09:04:47;;;;;;;3.03;2.50;;;;;;;;;;5039919;28;20245;-78
2023/06/15 09:07:14;;;;;;;2.92;2.72;;;;;;;;;;5037135;28;20674;-78
2023/06/15 09:10:02;;;;;;;2.85;2.58;;;;;;;;;;5039056;28;20234;-79
2023/06/15 09:12:30;;;;;;;6.90;3.05;;;;;;;;;;5039559;28;20213;-79
2023/06/15 09:14:57;;;;;;;2.83;2.63;;;;;;;;;;5044495;28;20226;-78
2023/06/15 09:17:28;;;;;;;3.53;2.90;;;;;;;;;;5046610;28;20621;-78
2023/06/15 09:19:55;;;;;;;2.97;2.75;;;;;;;;;;5031641;28;20759;-78
2023/06/15 09:22:23;;;;;;;3.38;2.60;;;;;;;;;;5042198;28;20215;-78
2023/06/15 09:24:50;;;;;;;2.97;2.58;;;;;;;;;;5033165;28;20230;-78
2023/06/15 09:27:17;;;;;;;4.00;2.60;;;;;;;;;;5045673;28;20217;-78
2023/06/15 09:30:02;;;;;;;3.40;2.92;;;;;;;;;;5046648;28;20235;-78
2023/06/15 09:32:29;;;;;;;3.10;2.60;;;;;;;;;;5042145;28;20668;-78
2023/06/15 09:34:58;;;;;;;2.97;2.78;;;;;;;;;;5039898;28;20230;-78
2023/06/15 09:37:27;;;;;;;2.90;2.70;;;;;;;;;;5053550;28;20276;-78
2023/06/15 09:39:54;;;;;;;3.08;2.60;;;;;;;;;;5045140;28;20326;-78
2023/06/15 09:42:25;;;;;;;4.03;2.70;;;;;;;;;;5044466;28;20214;-78
2023/06/15 09:44:55;;;;;;;2.90;2.70;;;;;;;;;;5043879;28;20234;-79
2023/06/15 09:47:22;;;;;;;3.20;2.92;;;;;;;;;;5044946;28;20245;-78
2023/06/15 09:49:49;;;;;;;2.80;2.60;;;;;;;;;;5045532;28;20308;-78
2023/06/15 09:52:16;;;;;;;4.13;2.92;;;;;;;;;;5049685;28;20211;-78
2023/06/15 09:54:44;;;;;;;3.20;2.90;;;;;;;;;;5046739;28;20238;-78
2023/06/15 09:57:11;;;;;;;3.10;2.80;;;;;;;;;;5044739;28;20218;-78
2023/06/15 09:59:39;;;;;;;4.43;2.85;;;;;;;;;;5053277;28;20286;-79
2023/06/15 10:02:11;;;;;;;3.05;2.80;;;;;;;;;;5044856;28;20230;-78
2023/06/15 10:04:39;;;;;;;3.88;2.80;;;;;;;;;;5046945;28;20699;-80
2023/06/15 10:07:07;;;;;;;3.00;2.80;;;;;;;;;;5050404;28;20209;-79
2023/06/15 10:09:37;;;;;;;4.70;2.80;;;;;;;;;;5052710;28;20832;-79
2023/06/15 10:12:07;;;;;;;3.15;2.85;;;;;;;;;;5035301;28;20676;-78
2023/06/15 10:14:36;;;;;;;3.22;2.92;;;;;;;;;;5047309;28;20244;-79
2023/06/15 10:17:04;;;;;;;3.13;2.88;;;;;;;;;;5039640;28;20214;-78
2023/06/15 10:19:38;;;;;;;3.08;2.88;;;;;;;;;;5047460;28;20234;-79
2023/06/15 10:22:06;;;;;;;2.90;2.70;;;;;;;;;;5041140;28;20280;-79
2023/06/15 10:24:34;;;;;;;3.75;2.70;;;;;;;;;;5045449;28;20595;-79
2023/06/15 10:27:02;;;;;;;3.15;2.55;;;;;;;;;;5048744;28;20213;-79
2023/06/15 10:29:32;;;;;;;5.75;3.15;;;;;;;;;;5035915;28;20222;-78
2023/06/15 10:32:02;;;;;;;2.72;2.53;;;;;;;;;;5040418;28;20262;-79
2023/06/15 10:34:32;;;;;;;2.80;2.60;;;;;;;;;;5043350;28;20260;-80
2023/06/15 10:37:04;;;;;;;2.78;2.58;;;;;;;;;;5042895;28;20222;-78
2023/06/15 10:39:35;;;;;;;3.05;2.83;;;;;;;;;;5039607;28;20226;-79
2023/06/15 10:42:07;;;;;;;2.90;2.70;;;;;;;;;;5044394;28;20230;-78
2023/06/15 10:44:35;;;;;;;2.90;2.60;;;;;;;;;;5039633;28;20258;-78
2023/06/15 10:47:08;;;;;;;2.95;2.75;;;;;;;;;;5040063;28;20313;-78
2023/06/15 10:49:36;;;;;;;2.95;2.75;;;;;;;;;;5040503;28;20229;-79
2023/06/15 10:52:05;;;;;;;3.17;2.60;;;;;;;;;;5040282;28;20241;-78
2023/06/15 10:54:32;;;;;;;3.20;2.40;;;;;;;;;;5045507;28;20782;-78
2023/06/15 10:56:59;;;;;;;3.05;2.75;;;;;;;;;;5031733;28;20302;-79
2023/06/15 10:59:39;;;;;;;3.53;2.75;;;;;;;;;;5039227;28;20541;-78
2023/06/15 11:02:33;;;;;;;4.10;2.65;;;;;;;;;;5045283;28;20233;-79
2023/06/15 11:05:02;;;;;;;2.90;2.60;;;;;;;;;;5006916;28;20233;-79
2023/06/15 11:07:30;;;;;;;3.45;2.50;;;;;;;;;;5048093;28;20668;-79
2023/06/15 11:09:58;;;;;;;3.80;2.83;;;;;;;;;;5041622;28;20233;-79
2023/06/15 11:12:35;;;;;;;2.67;2.47;;;;;;;;;;5043378;28;20687;-79
2023/06/15 11:15:02;;;;;;;2.60;2.40;;;;;;;;;;5041788;28;20227;-79
2023/06/15 11:17:29;;;;;;;4.32;2.47;;;;;;;;;;5051231;28;20234;-78
2023/06/15 11:19:57;;;;;;;2.95;2.60;;;;;;;;;;5050922;28;20225;-78
2023/06/15 11:22:27;;;;;;;3.40;2.60;;;;;;;;;;5039291;28;20217;-78
2023/06/15 11:24:57;;;;;;;3.45;2.30;;;;;;;;;;5045897;28;20257;-79
2023/06/15 11:27:25;;;;;;;2.72;2.53;;;;;;;;;;5045852;28;20687;-79
2023/06/15 11:29:56;;;;;;;4.05;2.70;;;;;;;;;;5048746;28;20234;-79
2023/06/15 11:32:26;;;;;;;3.33;2.58;;;;;;;;;;5034743;28;20233;-79
2023/06/15 11:34:56;;;;;;;8.00;2.30;;;;;;;;;;5042402;28;20253;-79
2023/06/15 11:37:27;;;;;;;4.10;2.30;;;;;;;;;;5042772;28;20202;-78
2023/06/15 11:39:56;;;;;;;2.40;2.20;;;;;;;;;;5034994;28;20230;-78
2023/06/15 11:42:23;;;;;;;2.70;2.50;;;;;;;;;;5034019;28;20216;-79
2023/06/15 11:44:50;;;;;;;2.50;2.30;;;;;;;;;;5043948;28;20237;-78
2023/06/15 11:47:18;;;;;;;2.80;2.60;;;;;;;;;;5049372;28;20213;-80
2023/06/15 11:49:47;;;;;;;5.03;2.67;;;;;;;;;;5046373;28;21083;-78
2023/06/15 11:52:16;;;;;;;4.90;2.95;;;;;;;;;;5042660;28;20268;-80
2023/06/15 11:54:45;;;;;;;2.58;2.38;;;;;;;;;;5045162;28;20268;-79
2023/06/15 11:57:16;;;;;;;6.10;2.60;;;;;;;;;;5038735;28;20214;-79
2023/06/15 11:59:43;;;;;;;2.40;2.20;;;;;;;;;;5038817;28;20246;-78
2023/06/15 12:02:12;;;;;;;2.90;2.30;;;;;;;;;;5046761;28;20241;-79
2023/06/15 12:04:40;;;;;;;4.35;2.50;;;;;;;;;;5043219;28;20253;-79
2023/06/15 12:07:08;;;;;;;5.75;2.20;;;;;;;;;;5045941;28;20221;-79
2023/06/15 12:09:36;;;;;;;3.25;2.47;;;;;;;;;;5038731;28;20234;-79
2023/06/15 12:12:04;;;;;;;2.55;2.35;;;;;;;;;;5047345;28;20755;-79
2023/06/15 12:14:32;;;;;;;3.75;2.38;;;;;;;;;;5040160;28;20305;-79
2023/06/15 12:17:00;;;;;;;2.85;2.40;;;;;;;;;;5042071;28;20233;-78
2023/06/15 12:19:27;;;;;;;4.38;2.28;;;;;;;;;;5048077;28;20714;-79
2023/06/15 12:21:59;;;;;;;2.40;2.20;;;;;;;;;;5048221;28;20265;-78
2023/06/15 12:24:26;;;;;;;2.45;2.25;;;;;;;;;;5029682;28;20234;-79
2023/06/15 12:26:55;;;;;;;7.35;2.33;;;;;;;;;;5042920;28;20205;-79
2023/06/15 12:29:23;;;;;;;4.38;2.67;;;;;;;;;;5047216;28;20237;-79
2023/06/15 12:31:52;;;;;;;2.50;2.30;;;;;;;;;;5044353;28;20230;-79
2023/06/15 12:34:22;;;;;;;2.90;2.28;;;;;;;;;;5046239;28;20229;-80
2023/06/15 12:36:50;;;;;;;2.25;2.05;;;;;;;;;;5047493;28;20218;-79
2023/06/15 12:39:18;;;;;;;4.82;2.10;;;;;;;;;;5050796;28;20225;-78
2023/06/15 12:41:46;;;;;;;3.15;2.60;;;;;;;;;;5035627;28;20230;-80
2023/06/15 12:44:13;;;;;;;2.25;2.05;;;;;;;;;;5045173;28;20237;-79
2023/06/15 12:46:40;;;;;;;2.50;2.30;;;;;;;;;;5050982;28;20210;-78
2023/06/15 12:49:10;;;;;;;2.05;1.95;;;;;;;;;;5045271;28;20234;-78
2023/06/15 12:51:37;;;;;;;5.05;2.53;;;;;;;;;;5045714;28;20262;-79
2023/06/15 12:54:05;;;;;;;2.75;2.38;;;;;;;;;;5037506;28;20314;-79
2023/06/15 12:56:34;;;;;;;3.47;2.15;;;;;;;;;;5044496;28;20221;-78
2023/06/15 12:59:01;;;;;;;4.15;2.50;;;;;;;;;;5053390;28;20696;-78
2023/06/15 13:01:28;;;;;;;2.15;2.03;;;;;;;;;;5041324;28;20234;-78
2023/06/15 13:03:56;;;;;;;2.72;2.28;;;;;;;;;;5041875;28;20238;-78
2023/06/15 13:06:24;;;;;;;5.07;2.20;;;;;;;;;;5045028;28;20651;-78
2023/06/15 13:08:52;;;;;;;2.58;2.35;;;;;;;;;;5041876;28;20229;-79
2023/06/15 13:11:19;;;;;;;3.35;2.30;;;;;;;;;;5043162;28;20314;-78
2023/06/15 13:13:46;;;;;;;2.40;2.20;;;;;;;;;;5040313;28;20207;-79
2023/06/15 13:16:15;;;;;;;2.40;2.20;;;;;;;;;;5045856;28;20218;-79
2023/06/15 13:18:43;;;;;;;3.00;2.35;;;;;;;;;;5045427;28;20271;-78
2023/06/15 13:21:11;;;;;;;2.83;2.13;;;;;;;;;;5044781;28;20237;-78
2023/06/15 13:23:41;;;;;;;3.25;2.42;;;;;;;;;;5033037;28;20217;-78
2023/06/15 13:26:08;;;;;;;2.42;2.10;;;;;;;;;;5041440;28;20217;-78
2023/06/15 13:28:35;;;;;;;2.50;2.10;;;;;;;;;;5035181;28;20222;-78
2023/06/15 13:31:03;;;;;;;4.00;2.60;;;;;;;;;;5051278;28;20244;-79
2023/06/15 13:33:30;;;;;;;8.73;3.25;;;;;;;;;;5034186;28;20279;-78
2023/06/15 13:35:57;;;;;;;4.95;2.55;;;;;;;;;;5046823;28;20234;-79
2023/06/15 13:38:25;;;;;;;4.40;2.60;;;;;;;;;;5043078;28;20626;-78
2023/06/15 13:40:53;;;;;;;3.30;2.33;;;;;;;;;;5039642;28;20236;-79
2023/06/15 13:43:20;;;;;;;2.72;2.33;;;;;;;;;;5052009;28;20241;-78
2023/06/15 13:45:48;;;;;;;3.20;2.63;;;;;;;;;;5038963;28;20230;-78
2023/06/15 13:48:15;;;;;;;3.70;2.28;;;;;;;;;;5051623;28;20236;-79
2023/06/15 13:50:42;;;;;;;3.58;2.38;;;;;;;;;;5050730;28;20614;-79
2023/06/15 13:53:10;;;;;;;4.32;2.67;;;;;;;;;;5038978;28;20221;-78
2023/06/15 13:55:37;;;;;;;2.72;2.40;;;;;;;;;;5066474;28;20290;-79
2023/06/15 13:58:06;;;;;;;5.72;2.20;;;;;;;;;;5077396;28;20317;-79
2023/06/15 14:00:33;;;;;;;5.72;2.42;;;;;;;;;;5094746;23;20214;-82
2023/06/15 14:03:04;;;;;;;4.68;2.25;;;;;;;;;;5012238;28;20226;-82
2023/06/15 14:05:31;;;;;;;3.58;2.78;;;;;;;;;;5011586;28;20235;-82
2023/06/15 14:07:58;;;;;;;2.60;2.30;;;;;;;;;;5019353;28;20222;-82
2023/06/15 14:10:26;;;;;;;3.70;2.63;;;;;;;;;;5013137;28;20239;-82
2023/06/15 14:12:53;;;;;;;2.72;2.33;;;;;;;;;;5012723;28;20222;-82
2023/06/15 14:15:22;;;;;;;3.35;2.40;;;;;;;;;;5011599;28;20258;-82
2023/06/15 14:17:49;;;;;;;2.95;2.50;;;;;;;;;;5012874;28;20302;-80
2023/06/15 14:20:17;;;;;;;2.58;2.20;;;;;;;;;;5008904;28;20235;-81
2023/06/15 14:28:24;;;;;;;3.13;2.25;;;;;;;;;;5059605;28;20232;-79
2023/06/15 14:30:52;;;;;;;6.65;2.60;;;;;;;;;;5069751;28;20886;-78
2023/06/15 14:33:19;;;;;;;3.45;2.28;;;;;;;;;;5070890;28;20216;-80
2023/06/15 14:35:46;;;;;;;3.55;2.78;;;;;;;;;;5060553;28;20591;-78
2023/06/15 14:38:13;;;;;;;4.97;2.90;;;;;;;;;;5061264;28;20256;-78
2023/06/15 14:40:40;;;;;;;5.05;2.45;;;;;;;;;;5089568;22;20753;-79
2023/06/15 14:43:07;;;;;;;4.10;2.17;;;;;;;;;;5063827;28;20350;-79
2023/06/15 14:45:34;;;;;;;3.17;2.75;;;;;;;;;;5069927;28;20867;-78
2023/06/15 14:48:02;;;;;;;5.93;3.13;;;;;;;;;;5068979;28;20256;-76
2023/06/15 14:50:29;;;;;;;2.83;2.50;;;;;;;;;;5062245;28;20694;-76
2023/06/15 14:52:56;;;;;;;3.67;3.35;;;;;;;;;;5058557;28;20240;-79